Time;durP1;ratioP1;P1;durP2;ratioP2;P2;SDS_P1;SDS_P2;PMS_P1;PMS_P2;Temp;Humidity;BMP_temperature;BMP_pressure;BME280_temperature;BME280_humidity;BME280_pressure;Samples;Min_cycle;Max_cycle;Signal;HPM_P1;HPM_P2
2021/01/06 00:02:52;;;;;;;10.38;4.72;;;;;;;2.36;98.13;101542.38;6247516;28;20411;-78
2021/01/06 00:05:56;;;;;;;8.32;4.95;;;;;;;2.42;99.03;101537.16;6247330;28;20049;-78
2021/01/06 00:08:57;;;;;;;7.20;4.53;;;;;;;2.38;98.24;101537.19;6247240;28;20049;-78
2021/01/06 00:11:58;;;;;;;10.80;4.40;;;;;;;2.44;97.98;101539.72;6247075;28;20046;-78
2021/01/06 00:14:59;;;;;;;11.10;4.55;;;;;;;2.51;98.37;101539.69;6247181;28;20075;-78
2021/01/06 00:18:01;;;;;;;11.98;5.63;;;;;;;2.52;97.61;101540.53;6246720;28;20054;-78
2021/01/06 00:21:03;;;;;;;10.65;4.68;;;;;;;2.41;98.19;101537.19;6246955;28;20041;-78
2021/01/06 00:24:04;;;;;;;8.95;3.95;;;;;;;2.46;97.54;101532.81;6246840;28;20111;-78
2021/01/06 00:27:05;;;;;;;12.02;4.88;;;;;;;2.45;98.39;101536.25;6246697;28;20061;-78
2021/01/06 00:30:10;;;;;;;8.73;4.38;;;;;;;2.43;98.28;101540.59;6246552;28;20053;-78
2021/01/06 00:33:14;;;;;;;8.48;4.32;;;;;;;2.46;97.10;101538.88;6246915;28;20049;-78
2021/01/06 00:36:19;;;;;;;8.15;4.10;;;;;;;2.54;97.27;101533.59;6246534;28;20072;-78
2021/01/06 00:39:20;;;;;;;7.45;4.18;;;;;;;2.37;97.82;101531.16;6246594;28;20049;-78
2021/01/06 00:42:21;;;;;;;10.02;4.25;;;;;;;2.40;97.97;101538.03;6246477;28;20060;-78
2021/01/06 00:45:21;;;;;;;6.50;4.20;;;;;;;2.38;98.10;101539.78;6246786;28;20054;-78
2021/01/06 00:48:23;;;;;;;10.07;4.15;;;;;;;2.40;98.18;101532.84;6246354;28;20061;-78
2021/01/06 00:51:24;;;;;;;7.90;3.75;;;;;;;2.37;98.57;101531.16;6246262;28;20453;-78
2021/01/06 00:54:25;;;;;;;9.10;3.45;;;;;;;2.37;98.17;101528.56;6246014;28;20045;-78
2021/01/06 00:57:26;;;;;;;6.80;3.90;;;;;;;2.39;98.13;101528.53;6246315;28;20060;-78
2021/01/06 01:00:29;;;;;;;9.50;3.90;;;;;;;2.45;98.01;101526.78;6246168;28;20498;-78
2021/01/06 01:03:30;;;;;;;11.43;4.28;;;;;;;2.40;97.28;101520.72;6246389;28;20410;-78
2021/01/06 01:06:33;;;;;;;6.18;3.78;;;;;;;2.37;97.26;101520.78;6246318;28;20099;-78
2021/01/06 01:09:34;;;;;;;5.88;3.30;;;;;;;2.44;97.65;101524.16;6246038;28;20647;-78
2021/01/06 01:12:35;;;;;;;5.65;3.40;;;;;;;2.36;98.06;101525.94;6245925;28;20061;-78
2021/01/06 01:15:38;;;;;;;6.88;3.63;;;;;;;2.32;97.16;101524.25;6246324;28;20050;-78
2021/01/06 01:18:39;;;;;;;8.32;3.45;;;;;;;2.33;97.94;101520.81;6245882;28;20049;-78
2021/01/06 01:21:40;;;;;;;8.93;3.40;;;;;;;2.28;98.13;101519.09;6246250;28;20061;-78
2021/01/06 01:24:41;;;;;;;6.43;3.35;;;;;;;2.29;97.96;101515.63;6246059;28;20508;-78
2021/01/06 01:27:42;;;;;;;5.55;3.25;;;;;;;2.33;97.59;101511.28;6246056;28;20089;-78
2021/01/06 01:30:44;;;;;;;6.53;3.08;;;;;;;2.37;97.37;101513.00;6245622;28;20056;-77
2021/01/06 01:33:45;;;;;;;5.97;3.63;;;;;;;2.26;97.83;101517.38;6246086;28;20087;-78
2021/01/06 01:36:47;;;;;;;5.53;3.42;;;;;;;2.26;98.59;101518.22;6245701;28;20053;-78
2021/01/06 01:39:48;;;;;;;7.10;3.83;;;;;;;2.33;98.21;101520.81;6245534;28;20045;-78
2021/01/06 01:42:53;;;;;;;8.40;4.10;;;;;;;2.27;98.30;101519.97;6245830;28;20138;-78
2021/01/06 01:46:25;;;;;;;7.20;4.15;;;;;;;2.30;98.55;101508.69;6245894;28;20079;-78
2021/01/06 01:49:39;;;;;;;9.40;5.80;;;;;;;2.41;98.36;101509.50;6245788;28;20049;-78
2021/01/06 01:52:44;;;;;;;10.65;5.20;;;;;;;2.29;98.35;101507.00;6245990;28;20084;-78
2021/01/06 01:55:49;;;;;;;15.02;6.00;;;;;;;2.35;98.49;101506.06;6246085;28;20049;-78
2021/01/06 01:58:52;;;;;;;11.32;6.10;;;;;;;2.33;97.83;101508.69;6245578;28;20053;-79
2021/01/06 02:01:57;;;;;;;13.15;6.22;;;;;;;2.37;97.42;101499.16;6245988;28;20056;-78
2021/01/06 02:05:06;;;;;;;15.77;6.65;;;;;;;2.25;97.75;101500.09;6245782;28;20418;-77
2021/01/06 02:08:11;;;;;;;12.03;5.90;;;;;;;2.23;98.16;101496.66;6249870;28;20052;-78
2021/01/06 02:11:18;;;;;;;10.02;6.40;;;;;;;2.25;98.33;101490.59;6249635;28;20367;-79
2021/01/06 02:14:24;;;;;;;11.52;6.53;;;;;;;2.27;98.06;101499.22;6263053;23;20513;-72
2021/01/06 02:17:25;;;;;;;9.65;5.80;;;;;;;2.35;96.97;101488.78;6237357;28;20053;-73
2021/01/06 02:20:28;;;;;;;13.27;6.60;;;;;;;2.29;97.40;101489.69;6249237;28;20057;-73
2021/01/06 02:23:29;;;;;;;10.43;6.07;;;;;;;2.18;97.91;101482.84;6250094;28;20049;-73
2021/01/06 02:26:30;;;;;;;9.48;6.15;;;;;;;2.36;97.10;101482.72;6225401;28;20096;-73
2021/01/06 02:29:32;;;;;;;12.52;6.45;;;;;;;2.21;97.48;101480.25;6224991;28;20498;-72
2021/01/06 02:32:34;;;;;;;10.40;6.60;;;;;;;2.12;98.29;101481.16;6225311;28;20483;-72
2021/01/06 02:35:35;;;;;;;10.82;5.82;;;;;;;2.25;97.51;101474.16;6239827;28;20041;-73
2021/01/06 02:38:36;;;;;;;14.07;5.65;;;;;;;2.13;96.83;101462.13;6248972;28;20050;-73
2021/01/06 02:41:39;;;;;;;10.60;6.13;;;;;;;2.16;97.21;101454.34;6226717;28;20060;-73
2021/01/06 02:44:40;;;;;;;10.35;4.80;;;;;;;2.22;97.26;101463.81;6224799;28;20422;-73
2021/01/06 02:47:43;;;;;;;9.00;5.60;;;;;;;2.12;97.14;101459.56;6224692;28;20136;-73
2021/01/06 02:50:46;;;;;;;8.88;5.30;;;;;;;2.15;97.00;101459.56;6224451;28;20050;-73
2021/01/06 02:53:52;;;;;;;9.07;5.57;;;;;;;2.05;97.72;101463.94;6224650;28;20642;-72
2021/01/06 02:56:56;;;;;;;17.80;5.90;;;;;;;2.08;97.41;101461.31;6224338;28;20045;-73
2021/01/06 02:59:57;;;;;;;9.57;5.10;;;;;;;2.03;97.81;101466.53;6224507;28;20049;-73
2021/01/06 03:03:00;;;;;;;11.15;5.22;;;;;;;2.10;97.67;101461.31;6224411;28;20042;-73
2021/01/06 03:06:07;;;;;;;11.35;4.68;;;;;;;2.01;97.67;101459.66;6224391;28;20049;-72
2021/01/06 03:09:31;;;;;;;8.50;4.90;;;;;;;1.99;97.88;101458.78;6223641;28;20046;-73
2021/01/06 03:12:34;;;;;;;8.63;4.68;;;;;;;2.03;97.04;101456.16;6224363;28;20053;-73
2021/01/06 03:15:35;;;;;;;9.05;4.40;;;;;;;2.12;95.57;101457.84;6224039;28;20049;-73
2021/01/06 03:18:36;;;;;;;9.68;3.95;;;;;;;2.13;95.36;101453.50;6223119;28;20050;-74
2021/01/06 03:21:39;;;;;;;10.85;3.90;;;;;;;2.10;94.28;101453.53;6224093;28;20412;-72
2021/01/06 03:24:46;;;;;;;8.18;3.53;;;;;;;2.13;92.86;101454.38;6223914;28;20050;-73
2021/01/06 03:27:51;;;;;;;8.02;4.60;;;;;;;2.18;93.92;101455.22;6223799;28;20509;-72
2021/01/06 03:30:55;;;;;;;12.23;5.32;;;;;;;2.24;93.06;101452.56;6223464;28;20507;-72
2021/01/06 03:34:02;;;;;;;9.40;5.70;;;;;;;1.98;94.00;101449.28;6223702;28;20042;-74
2021/01/06 03:37:08;;;;;;;11.30;6.53;;;;;;;1.90;95.56;101451.94;6223445;28;20053;-74
2021/01/06 03:40:14;;;;;;;11.60;7.03;;;;;;;1.86;96.34;101442.44;6223042;28;20056;-73
2021/01/06 03:43:16;;;;;;;13.85;6.47;;;;;;;1.98;94.59;101451.88;6223474;28;20054;-72
2021/01/06 03:46:22;;;;;;;12.52;6.57;;;;;;;1.88;95.22;101445.06;6223313;28;20068;-73
2021/01/06 03:49:38;;;;;;;14.52;6.28;;;;;;;2.05;94.50;101440.63;6223086;28;20046;-72
2021/01/06 03:52:49;;;;;;;11.60;6.40;;;;;;;1.88;94.92;101439.88;6223405;28;20042;-73
2021/01/06 03:55:54;;;;;;;14.15;6.90;;;;;;;1.80;96.21;101442.50;6222495;28;20046;-73
2021/01/06 03:58:59;;;;;;;14.50;6.78;;;;;;;1.77;95.95;101439.91;6223111;28;20097;-73
2021/01/06 04:02:05;;;;;;;10.95;6.10;;;;;;;1.77;95.46;101440.81;6222992;28;20050;-73
2021/01/06 04:05:10;;;;;;;11.85;6.47;;;;;;;1.73;95.69;101431.31;6223116;28;20054;-73
2021/01/06 04:08:16;;;;;;;17.63;6.88;;;;;;;1.84;94.70;101439.03;6222334;28;20049;-72
2021/01/06 04:11:22;;;;;;;10.10;6.28;;;;;;;1.79;94.77;101433.00;6198303;28;20050;-73
2021/01/06 04:14:22;;;;;;;14.93;5.95;;;;;;;1.69;95.08;101427.03;6198156;28;20061;-72
2021/01/06 04:17:27;;;;;;;9.73;5.95;;;;;;;1.78;95.39;101419.19;6205083;28;20050;-72
2021/01/06 04:20:31;;;;;;;13.80;6.40;;;;;;;1.75;95.20;101426.97;6222384;28;20050;-73
2021/01/06 04:23:33;;;;;;;14.18;6.85;;;;;;;1.77;95.76;101426.97;6222465;28;20057;-73
2021/01/06 04:26:38;;;;;;;11.90;6.40;;;;;;;1.77;94.99;101420.06;6222367;28;20165;-73
2021/01/06 04:29:40;;;;;;;10.43;6.35;;;;;;;1.77;94.27;101417.47;6221404;28;20052;-72
2021/01/06 04:32:41;;;;;;;13.50;6.45;;;;;;;1.67;94.73;101414.94;6221139;28;20100;-73
2021/01/06 04:35:42;;;;;;;13.65;6.00;;;;;;;1.69;95.47;101413.22;6231490;28;20046;-72
2021/01/06 04:38:45;;;;;;;14.65;6.53;;;;;;;1.67;95.05;101412.34;6246032;28;20103;-73
2021/01/06 04:41:56;;;;;;;11.30;6.50;;;;;;;1.64;94.95;101399.44;6246844;28;20056;-72
2021/01/06 04:45:05;;;;;;;9.82;5.93;;;;;;;1.70;95.44;101404.56;6226860;28;20057;-73
2021/01/06 04:48:18;;;;;;;9.05;5.63;;;;;;;1.76;94.06;101404.50;6222003;28;20050;-72
2021/01/06 04:51:33;;;;;;;9.35;6.07;;;;;;;1.67;93.91;101397.66;6221974;28;20061;-73
2021/01/06 04:54:56;;;;;;;10.38;6.20;;;;;;;1.61;94.72;101396.84;6228381;28;20045;-73
2021/01/06 04:58:12;;;;;;;10.07;6.15;;;;;;;1.66;94.40;101395.09;6233496;28;20049;-73
2021/01/06 05:01:32;;;;;;;14.35;6.47;;;;;;;1.70;94.73;101395.06;6246074;28;20050;-73
2021/01/06 05:04:52;;;;;;;13.15;6.13;;;;;;;1.66;94.84;101395.94;6246498;28;20049;-73
2021/01/06 05:08:05;;;;;;;12.95;6.35;;;;;;;1.61;93.86;101395.13;6241790;28;20057;-73
2021/01/06 05:11:11;;;;;;;12.45;6.68;;;;;;;1.59;94.60;101389.09;6221545;28;20573;-73
2021/01/06 05:14:17;;;;;;;10.25;6.40;;;;;;;1.61;94.53;101395.13;6221880;28;20053;-73
2021/01/06 05:17:18;;;;;;;13.00;6.63;;;;;;;1.71;93.92;101398.50;6221600;28;20053;-73
2021/01/06 05:20:19;;;;;;;10.88;5.75;;;;;;;1.68;93.28;101395.94;6221586;28;20053;-73
2021/01/06 05:23:22;;;;;;;9.23;5.82;;;;;;;1.52;93.90;101390.00;6221785;28;20427;-72
2021/01/06 05:26:23;;;;;;;9.55;5.63;;;;;;;1.49;94.64;101390.84;6221609;28;20046;-73
2021/01/06 05:29:28;;;;;;;12.40;6.13;;;;;;;1.40;95.71;101385.72;6221285;28;20050;-73
2021/01/06 05:32:31;;;;;;;11.35;6.40;;;;;;;1.52;96.40;101379.63;6221530;28;20050;-73
2021/01/06 05:35:37;;;;;;;11.43;6.57;;;;;;;1.42;96.67;101389.19;6221721;28;20491;-73
2021/01/06 05:38:38;;;;;;;12.95;6.55;;;;;;;1.37;95.81;101377.13;6220547;28;20057;-73
2021/01/06 05:41:39;;;;;;;11.23;6.47;;;;;;;1.38;96.68;101382.28;6225592;28;20046;-73
2021/01/06 05:44:41;;;;;;;13.60;6.03;;;;;;;1.38;96.66;101374.53;6226115;28;20423;-73
2021/01/06 05:47:48;;;;;;;13.95;6.32;;;;;;;1.37;96.42;101377.13;6226205;28;20069;-73
2021/01/06 05:50:59;;;;;;;10.30;6.43;;;;;;;1.19;96.52;101373.78;6225717;28;20046;-73
2021/01/06 05:54:02;;;;;;;15.68;6.93;;;;;;;1.15;98.12;101377.22;6226297;28;20046;-73
2021/01/06 05:57:16;;;;;;;12.13;6.35;;;;;;;1.25;98.46;101378.06;6225609;28;20053;-73
2021/01/06 06:00:30;;;;;;;13.40;7.35;;;;;;;1.11;98.94;101375.53;6225794;28;20065;-73
2021/01/06 06:03:52;;;;;;;13.45;6.55;;;;;;;1.12;99.34;101377.25;6225842;28;20404;-72
2021/01/06 06:07:22;;;;;;;21.92;7.28;;;;;;;1.13;99.54;101372.91;6225652;28;20050;-73
2021/01/06 06:10:34;;;;;;;17.35;6.25;;;;;;;1.05;99.20;101372.97;6201305;28;20055;-73
2021/01/06 06:14:04;;;;;;;12.00;6.57;;;;;;;0.95;99.75;101372.16;6201103;28;20053;-73
2021/01/06 06:17:15;;;;;;;15.43;6.40;;;;;;;1.02;100.00;101367.81;6200937;28;20057;-73
2021/01/06 06:20:35;;;;;;;13.80;7.18;;;;;;;1.06;100.00;101373.84;6200905;28;20054;-73
2021/01/06 06:23:56;;;;;;;16.40;7.05;;;;;;;1.01;99.69;101373.84;6201127;28;20057;-73
2021/01/06 06:27:06;;;;;;;12.90;6.40;;;;;;;0.92;99.59;101374.75;6200942;28;20053;-73
2021/01/06 06:30:21;;;;;;;16.85;6.93;;;;;;;1.01;100.00;101376.44;6200634;28;20050;-73
2021/01/06 06:33:28;;;;;;;13.00;6.90;;;;;;;0.96;100.00;101367.84;6200841;28;20100;-73
2021/01/06 06:36:31;;;;;;;14.20;7.70;;;;;;;0.92;100.00;101366.13;6200640;28;20062;-73
2021/01/06 06:39:34;;;;;;;15.27;8.48;;;;;;;0.86;100.00;101368.72;6223700;28;20053;-74
2021/01/06 06:42:47;;;;;;;13.65;8.02;;;;;;;0.86;100.00;101374.75;6225088;28;20092;-74
2021/01/06 06:46:01;;;;;;;15.93;8.68;;;;;;;0.98;100.00;101366.94;6225033;28;20049;-72
2021/01/06 06:49:18;;;;;;;15.02;7.90;;;;;;;0.84;100.00;101363.56;6224507;28;20058;-73
2021/01/06 06:52:25;;;;;;;15.77;8.38;;;;;;;0.90;100.00;101355.75;6224284;28;20050;-73
2021/01/06 06:55:35;;;;;;;14.82;8.23;;;;;;;0.99;99.58;101360.91;6224391;28;20422;-71
2021/01/06 06:58:44;;;;;;;16.83;7.55;;;;;;;0.86;100.00;101359.22;6224248;28;20061;-71
2021/01/06 07:01:46;;;;;;;14.73;7.07;;;;;;;0.81;99.93;101360.97;6224420;28;20050;-73
2021/01/06 07:04:52;;;;;;;17.35;8.70;;;;;;;0.84;100.00;101365.28;6216927;28;20100;-71
2021/01/06 07:07:53;;;;;;;17.55;8.50;;;;;;;0.78;100.00;101363.59;6213968;28;20050;-73
2021/01/06 07:11:00;;;;;;;14.57;8.23;;;;;;;0.85;100.00;101369.59;6214494;28;20057;-72
2021/01/06 07:14:07;;;;;;;14.35;7.60;;;;;;;0.86;100.00;101369.56;6205538;28;20042;-74
2021/01/06 07:17:12;;;;;;;18.95;8.23;;;;;;;0.84;100.00;101368.72;6208176;28;20054;-72
2021/01/06 07:20:16;;;;;;;21.77;8.60;;;;;;;0.78;100.00;101366.16;6199504;28;20462;-73
2021/01/06 07:23:21;;;;;;;17.10;8.02;;;;;;;0.84;100.00;101373.03;6199551;28;20083;-72
2021/01/06 07:26:26;;;;;;;14.90;7.97;;;;;;;0.77;100.00;101367.00;6199387;28;20062;-72
2021/01/06 07:29:32;;;;;;;14.85;7.55;;;;;;;0.86;100.00;101361.81;6199283;28;20498;-72
2021/01/06 07:32:38;;;;;;;13.90;7.25;;;;;;;0.75;100.00;101361.84;6199406;28;20428;-72
2021/01/06 07:35:42;;;;;;;13.60;7.63;;;;;;;0.74;100.00;101364.47;6199476;28;20093;-72
2021/01/06 07:38:45;;;;;;;15.63;8.05;;;;;;;0.82;100.00;101365.28;6219480;28;20054;-72
2021/01/06 07:41:46;;;;;;;17.70;8.05;;;;;;;0.70;100.00;101366.19;6223558;28;20400;-72
2021/01/06 07:44:46;;;;;;;13.93;7.78;;;;;;;0.75;100.00;101361.00;6223552;28;20129;-72
2021/01/06 07:47:56;;;;;;;21.05;8.93;;;;;;;0.70;100.00;101370.50;6223183;28;20056;-72
2021/01/06 07:51:06;;;;;;;18.48;8.68;;;;;;;0.72;100.00;101373.94;6222981;28;20462;-71
2021/01/06 07:54:17;;;;;;;17.02;8.20;;;;;;;0.76;100.00;101373.91;6222983;28;20391;-72
2021/01/06 07:57:36;;;;;;;15.82;7.28;;;;;;;0.76;100.00;101383.41;6223067;28;20640;-74
2021/01/06 08:00:41;;;;;;;17.83;7.57;;;;;;;0.74;100.00;101374.81;6222978;28;20578;-73
2021/01/06 08:03:47;;;;;;;16.35;8.43;;;;;;;0.79;100.00;101377.38;6221938;28;20469;-71
2021/01/06 08:06:54;;;;;;;20.77;8.60;;;;;;;0.76;100.00;101381.69;6222464;28;20426;-71
2021/01/06 08:09:55;;;;;;;16.40;8.45;;;;;;;0.83;100.00;101379.09;6222553;28;20045;-71
2021/01/06 08:13:10;;;;;;;21.08;9.20;;;;;;;0.76;100.00;101373.06;6222602;28;20045;-72
2021/01/06 08:16:16;;;;;;;17.75;9.52;;;;;;;0.94;100.00;101377.31;6220814;28;20058;-71
2021/01/06 08:19:20;;;;;;;14.98;7.75;;;;;;;0.80;100.00;101374.78;6238988;23;20065;-73
2021/01/06 08:22:27;;;;;;;14.32;7.88;;;;;;;0.76;100.00;101373.91;6222772;28;20491;-73
2021/01/06 08:25:31;;;;;;;17.48;8.75;;;;;;;0.81;100.00;101370.47;6221952;28;20137;-73
2021/01/06 08:28:32;;;;;;;16.30;7.25;;;;;;;0.75;100.00;101368.75;6212735;28;20050;-73
2021/01/06 08:31:35;;;;;;;13.77;7.00;;;;;;;0.84;100.00;101380.81;6222049;28;20418;-73
2021/01/06 08:34:39;;;;;;;15.52;7.53;;;;;;;0.77;100.00;101364.41;6222024;28;20057;-73
2021/01/06 08:37:41;;;;;;;12.02;6.38;;;;;;;0.75;100.00;101372.19;6222070;28;20068;-73
2021/01/06 08:40:42;;;;;;;13.88;7.15;;;;;;;0.80;100.00;101369.59;6221711;28;20061;-73
2021/01/06 08:43:43;;;;;;;16.33;7.82;;;;;;;0.94;100.00;101364.38;6222169;28;20053;-73
2021/01/06 08:46:55;;;;;;;14.90;7.88;;;;;;;0.80;99.57;101367.00;6221847;28;20050;-73
2021/01/06 08:50:21;;;;;;;16.92;7.47;;;;;;;0.77;100.00;101369.59;6220261;28;20053;-73
2021/01/06 08:53:34;;;;;;;15.85;8.13;;;;;;;0.89;100.00;101364.41;6218168;28;20042;-73
2021/01/06 08:56:35;;;;;;;13.10;6.82;;;;;;;0.81;100.00;101378.22;6220074;28;20120;-72
2021/01/06 08:59:37;;;;;;;17.30;7.82;;;;;;;0.94;100.00;101372.13;6220241;28;20049;-72
2021/01/06 09:02:46;;;;;;;15.98;7.85;;;;;;;0.91;100.00;101372.13;6220425;28;20050;-72
2021/01/06 09:05:55;;;;;;;17.00;7.33;;;;;;;0.75;99.98;101377.38;6217991;28;20064;-73
2021/01/06 09:09:13;;;;;;;12.38;6.50;;;;;;;0.88;100.00;101369.59;6219935;28;20285;-73
2021/01/06 09:12:53;;;;;;;13.00;6.55;;;;;;;0.80;100.00;101364.44;6220282;28;20080;-73
2021/01/06 09:16:00;;;;;;;11.98;6.45;;;;;;;0.82;100.00;101369.59;6221330;28;20100;-72
2021/01/06 09:19:06;;;;;;;17.50;6.70;;;;;;;0.82;99.74;101365.28;6224418;28;20429;-72
2021/01/06 09:22:10;;;;;;;14.38;6.97;;;;;;;0.65;100.00;101361.91;6225287;28;20506;-69
2021/01/06 09:25:15;;;;;;;15.35;6.55;;;;;;;0.72;100.00;101364.44;6225597;28;20049;-68
2021/01/06 09:28:17;;;;;;;16.73;6.75;;;;;;;0.80;100.00;101358.41;6224303;28;20053;-69
2021/01/06 09:31:18;;;;;;;17.25;7.45;;;;;;;0.62;100.00;101356.72;6226402;28;20053;-68
2021/01/06 09:34:24;;;;;;;10.75;6.20;;;;;;;0.74;100.00;101360.13;6224454;28;20054;-70
2021/01/06 09:37:27;;;;;;;18.65;6.72;;;;;;;0.62;99.96;101349.81;6219452;28;20080;-68
2021/01/06 09:40:31;;;;;;;13.07;6.30;;;;;;;0.78;100.00;101350.66;6225552;28;20042;-68
2021/01/06 09:43:38;;;;;;;12.45;6.72;;;;;;;0.59;100.00;101352.44;6226113;28;20081;-70
2021/01/06 09:46:49;;;;;;;19.75;7.22;;;;;;;0.58;100.00;101345.53;6225607;28;20107;-67
2021/01/06 09:49:56;;;;;;;14.15;7.25;;;;;;;0.66;100.00;101341.19;6218249;28;20100;-68
2021/01/06 09:53:00;;;;;;;17.02;6.90;;;;;;;0.66;100.00;101348.09;6225991;28;20053;-68
2021/01/06 09:56:02;;;;;;;17.30;7.53;;;;;;;0.65;100.00;101341.22;6225650;28;20113;-69
2021/01/06 09:59:13;;;;;;;12.65;6.72;;;;;;;0.81;100.00;101344.59;6225260;28;20045;-67
2021/01/06 10:02:20;;;;;;;18.38;6.60;;;;;;;0.83;100.00;101351.50;6226037;28;20046;-68
2021/01/06 10:05:38;;;;;;;15.70;7.32;;;;;;;0.81;100.00;101349.75;6225238;28;20042;-68
2021/01/06 10:08:46;;;;;;;16.60;7.90;;;;;;;0.75;100.00;101341.16;6225146;28;20049;-71
2021/01/06 10:11:57;;;;;;;11.45;6.55;;;;;;;0.79;100.00;101347.19;6225594;28;20050;-67
2021/01/06 10:15:18;;;;;;;18.92;7.25;;;;;;;0.64;100.00;101342.94;6225134;28;20046;-70
2021/01/06 10:18:35;;;;;;;18.27;6.93;;;;;;;0.72;100.00;101345.47;6224433;28;20081;-69
2021/01/06 10:21:45;;;;;;;15.52;7.75;;;;;;;0.68;100.00;101334.31;6219856;28;20050;-70
2021/01/06 10:25:07;;;;;;;14.60;6.82;;;;;;;0.90;100.00;101331.63;6216885;28;20062;-69
2021/01/06 10:28:26;;;;;;;11.38;6.25;;;;;;;0.84;100.00;101329.06;6223556;28;20486;-69
2021/01/06 10:31:27;;;;;;;14.57;6.93;;;;;;;0.76;100.00;101329.09;6224831;28;20050;-69
2021/01/06 10:34:35;;;;;;;15.13;6.45;;;;;;;0.86;100.00;101322.13;6216307;28;20046;-68
2021/01/06 10:37:42;;;;;;;10.57;6.28;;;;;;;0.92;100.00;101323.00;6223407;28;20057;-68
2021/01/06 10:40:44;;;;;;;8.68;5.45;;;;;;;0.70;99.99;101323.94;6221902;28;20115;-70
2021/01/06 10:43:48;;;;;;;12.95;5.60;;;;;;;0.75;99.62;101314.44;6224771;28;20046;-69
2021/01/06 10:46:50;;;;;;;10.00;5.35;;;;;;;0.79;100.00;101304.94;6224389;28;20042;-67
2021/01/06 10:49:57;;;;;;;11.98;6.10;;;;;;;0.76;100.00;101304.06;6224040;28;20141;-69
2021/01/06 10:53:04;;;;;;;13.13;5.10;;;;;;;0.69;100.00;101306.72;6210832;28;20049;-68
2021/01/06 10:56:08;;;;;;;11.88;5.80;;;;;;;0.62;100.00;101302.41;6214731;28;20105;-70
2021/01/06 10:59:15;;;;;;;10.02;5.53;;;;;;;0.72;100.00;101296.34;6210926;28;20049;-72
2021/01/06 11:02:31;;;;;;;13.15;5.90;;;;;;;0.87;99.95;101290.25;6224630;28;20046;-70
2021/01/06 11:05:38;;;;;;;12.13;6.10;;;;;;;0.68;100.00;101284.28;6218497;28;20176;-72
2021/01/06 11:08:59;;;;;;;10.55;5.50;;;;;;;0.78;99.42;101274.78;6223092;28;20099;-70
2021/01/06 11:12:14;;;;;;;13.38;5.38;;;;;;;0.70;100.00;101283.41;6222052;28;20065;-72
2021/01/06 11:15:29;;;;;;;11.13;6.05;;;;;;;0.81;100.00;101269.56;6222489;28;20068;-72
2021/01/06 11:18:37;;;;;;;12.02;6.40;;;;;;;0.81;100.00;101266.97;6223113;28;20053;-70
2021/01/06 11:22:02;;;;;;;13.73;6.85;;;;;;;0.70;100.00;101256.69;6223700;28;20057;-72
2021/01/06 11:25:27;;;;;;;16.80;6.60;;;;;;;0.87;100.00;101261.78;6224176;28;20054;-68
2021/01/06 11:28:32;;;;;;;11.95;6.55;;;;;;;0.89;98.95;101255.72;6247885;28;20052;-68
2021/01/06 11:31:35;;;;;;;12.52;6.25;;;;;;;0.86;98.92;101262.63;6220443;28;20050;-69
2021/01/06 11:34:39;;;;;;;20.30;8.52;;;;;;;0.82;99.99;101250.59;6220863;28;20045;-68
2021/01/06 11:37:42;;;;;;;11.63;6.75;;;;;;;0.78;100.00;101254.94;6222820;28;20049;-70
2021/01/06 11:40:55;;;;;;;14.27;7.38;;;;;;;0.84;99.73;101254.91;6222990;28;20119;-70
2021/01/06 11:43:59;;;;;;;16.65;7.28;;;;;;;0.81;100.00;101247.13;6223450;28;20053;-69
2021/01/06 11:47:20;;;;;;;18.00;7.82;;;;;;;0.82;100.00;101241.13;6222851;28;20495;-69
2021/01/06 11:50:37;;;;;;;16.15;7.18;;;;;;;0.85;100.00;101233.31;6222731;28;20079;-69
2021/01/06 11:53:41;;;;;;;19.08;8.07;;;;;;;0.94;100.00;101238.44;6222934;28;20049;-70
2021/01/06 11:56:49;;;;;;;12.45;7.25;;;;;;;1.05;99.52;101232.38;6222827;28;20057;-70
2021/01/06 12:00:03;;;;;;;14.45;6.63;;;;;;;0.88;100.00;101227.28;6222389;28;20049;-71
2021/01/06 12:03:22;;;;;;;15.05;7.18;;;;;;;0.92;100.00;101226.41;6223099;28;20049;-71
2021/01/06 12:06:37;;;;;;;17.27;7.63;;;;;;;0.79;100.00;101220.44;6222313;28;20052;-71
2021/01/06 12:09:50;;;;;;;15.30;8.18;;;;;;;0.94;100.00;101215.16;6222267;28;20057;-70
2021/01/06 12:13:04;;;;;;;14.57;7.30;;;;;;;1.03;100.00;101214.25;6223032;28;20152;-71
2021/01/06 12:16:11;;;;;;;15.68;7.35;;;;;;;0.79;100.00;101206.63;6218487;28;20057;-71
2021/01/06 12:19:23;;;;;;;13.85;7.60;;;;;;;0.97;100.00;101201.34;6217354;28;20052;-69
2021/01/06 12:22:26;;;;;;;13.98;7.60;;;;;;;0.88;100.00;101197.09;6222225;28;20145;-70
2021/01/06 12:25:41;;;;;;;13.02;8.02;;;;;;;0.86;100.00;101196.22;6222038;28;20049;-70
2021/01/06 12:28:50;;;;;;;14.52;7.35;;;;;;;0.96;100.00;101187.56;6220906;28;20514;-70
2021/01/06 12:31:59;;;;;;;13.05;7.78;;;;;;;0.92;99.98;101187.59;6220665;28;20045;-70
2021/01/06 12:35:18;;;;;;;17.00;8.38;;;;;;;0.80;100.00;101185.94;6208704;28;20100;-70
2021/01/06 12:38:25;;;;;;;13.80;7.95;;;;;;;0.94;100.00;101176.34;6222237;28;20049;-71
2021/01/06 12:41:26;;;;;;;15.60;8.90;;;;;;;1.04;99.44;101179.72;6221678;28;20564;-69
2021/01/06 12:44:31;;;;;;;16.75;8.80;;;;;;;0.96;99.34;101174.63;6217691;28;20045;-70
2021/01/06 12:47:40;;;;;;;15.05;8.85;;;;;;;0.91;100.00;101171.22;6221422;28;20470;-69
2021/01/06 12:50:52;;;;;;;20.27;9.27;;;;;;;0.88;100.00;101172.94;6220930;28;20056;-70
2021/01/06 12:53:58;;;;;;;16.75;8.73;;;;;;;0.79;100.00;101170.44;6220836;28;20746;-70
2021/01/06 12:57:04;;;;;;;13.95;8.80;;;;;;;0.96;100.00;101166.00;6220191;28;20057;-70
2021/01/06 13:00:26;;;;;;;17.55;8.05;;;;;;;0.75;100.00;101162.69;6217924;28;20100;-70
2021/01/06 13:03:31;;;;;;;19.58;9.30;;;;;;;0.71;100.00;101168.72;6219523;28;20466;-70
2021/01/06 13:06:41;;;;;;;16.35;8.90;;;;;;;0.79;100.00;101162.66;6214171;28;20410;-69
2021/01/06 13:09:54;;;;;;;15.13;8.70;;;;;;;0.96;100.00;101160.84;6220729;28;20046;-71
2021/01/06 13:13:02;;;;;;;13.48;8.60;;;;;;;0.77;100.00;101154.91;6214639;28;20056;-72
2021/01/06 13:16:19;;;;;;;18.00;8.82;;;;;;;0.74;100.00;101154.94;6221548;28;20057;-71
2021/01/06 13:19:31;;;;;;;14.90;9.57;;;;;;;0.80;100.00;101162.66;6220814;28;20439;-71
2021/01/06 13:22:44;;;;;;;14.45;8.75;;;;;;;0.89;100.00;101147.06;6221167;28;20057;-72
2021/01/06 13:25:46;;;;;;;16.20;9.07;;;;;;;0.87;100.00;101143.63;6221366;28;20068;-72
2021/01/06 13:28:51;;;;;;;14.40;8.38;;;;;;;0.89;100.00;101149.66;6218939;28;20053;-72
2021/01/06 13:32:07;;;;;;;15.57;9.05;;;;;;;0.87;100.00;101146.22;6219300;28;20388;-71
2021/01/06 13:35:22;;;;;;;11.95;7.22;;;;;;;0.96;99.01;101147.91;6219685;28;20049;-71
2021/01/06 13:38:25;;;;;;;20.52;10.23;;;;;;;0.84;100.00;101147.97;6219933;28;20053;-71
2021/01/06 13:41:34;;;;;;;14.27;8.70;;;;;;;0.87;100.00;101148.81;6220505;28;20439;-71
2021/01/06 13:44:42;;;;;;;16.88;9.68;;;;;;;0.93;100.00;101145.31;6221486;28;20049;-71
2021/01/06 13:47:48;;;;;;;15.52;9.65;;;;;;;0.76;100.00;101146.28;6220860;28;20614;-71
2021/01/06 13:50:53;;;;;;;15.23;9.30;;;;;;;0.82;100.00;101149.69;6220922;28;20061;-71
2021/01/06 13:54:01;;;;;;;16.15;9.45;;;;;;;0.87;100.00;101151.41;6220739;28;20041;-71
2021/01/06 13:57:05;;;;;;;16.75;10.00;;;;;;;0.88;100.00;101152.25;6220307;28;20458;-71
2021/01/06 14:00:12;;;;;;;17.27;10.43;;;;;;;0.80;100.00;101147.13;6220290;28;20045;-72
2021/01/06 14:03:34;;;;;;;15.80;9.85;;;;;;;0.79;100.00;101145.41;6223236;28;20095;-72
2021/01/06 14:06:51;;;;;;;18.40;8.85;;;;;;;0.92;100.00;101151.38;6223205;28;20045;-72
2021/01/06 14:10:01;;;;;;;15.35;9.20;;;;;;;0.80;100.00;101141.94;6222772;28;20077;-71
2021/01/06 14:13:31;;;;;;;23.73;9.43;;;;;;;0.86;100.00;101139.31;6223815;28;20422;-71
2021/01/06 14:16:53;;;;;;;16.40;9.15;;;;;;;0.86;100.00;101138.47;6235401;28;20041;-72
2021/01/06 14:20:02;;;;;;;18.17;9.00;;;;;;;0.75;100.00;101141.97;6224552;28;20072;-71
2021/01/06 14:23:26;;;;;;;21.63;9.45;;;;;;;0.74;100.00;101145.44;6224824;28;20053;-72
2021/01/06 14:26:36;;;;;;;16.67;10.48;;;;;;;0.78;100.00;101135.09;6219312;28;20057;-70
2021/01/06 14:29:46;;;;;;;17.55;10.43;;;;;;;0.74;100.00;101140.28;6222025;28;20058;-69